createdAt,value
2018-09-23T07:19:37.520Z,44.23
2018-09-23T07:22:05.722Z,47.30
2018-09-23T07:24:33.906Z,46.73
2018-09-23T07:27:43.864Z,46.37
2018-09-23T07:30:12.008Z,31.57
2018-09-23T07:32:40.283Z,36.33
2018-09-23T07:35:08.434Z,27.02
2018-09-23T07:37:37.732Z,32.67
2018-09-23T07:40:06.008Z,31.57
2018-09-23T07:42:34.173Z,27.22
2018-09-23T07:45:02.330Z,26.10
2018-09-23T07:47:30.529Z,34.10
2018-09-23T07:49:58.738Z,42.80
2018-09-23T07:52:26.962Z,32.80
2018-09-23T07:54:55.146Z,30.30
2018-09-23T07:57:23.394Z,51.95
2018-09-23T07:59:51.573Z,33.33
2018-09-23T08:02:19.746Z,43.25
2018-09-23T08:04:47.922Z,39.03
2018-09-23T08:07:16.087Z,35.05
2018-09-23T08:09:44.288Z,35.68
2018-09-23T08:12:12.494Z,30.75
2018-09-23T08:14:41.031Z,27.23
2018-09-23T08:17:08.845Z,25.92
2018-09-23T08:19:37.061Z,24.70
2018-09-23T08:22:05.244Z,20.17
2018-09-23T08:24:33.536Z,16.03
2018-09-23T08:27:01.866Z,10.03
2018-09-23T08:29:30.455Z,10.68
2018-09-23T08:31:58.686Z,13.20
2018-09-23T08:34:26.991Z,9.80
2018-09-23T08:36:55.265Z,11.10
2018-09-23T08:39:23.770Z,8.03
2018-09-23T08:41:52.047Z,10.97
2018-09-23T08:44:20.200Z,9.68
2018-09-23T08:46:48.492Z,12.40
2018-09-23T08:49:16.785Z,11.00
2018-09-23T08:51:45.275Z,10.95
2018-09-23T08:54:13.974Z,11.55
2018-09-23T08:56:42.539Z,14.45
2018-09-23T08:59:17.610Z,12.47
2018-09-23T09:01:46.393Z,13.65
2018-09-23T09:04:14.603Z,11.45
2018-09-23T09:06:43.890Z,12.63
2018-09-23T09:09:12.850Z,12.23
2018-09-23T09:14:18.978Z,8.83
2018-09-23T09:16:47.747Z,10.55
2018-09-23T09:19:16.563Z,10.18
2018-09-23T09:21:45.406Z,11.00
2018-09-23T09:24:14.495Z,10.55
2018-09-23T09:26:43.322Z,9.93
2018-09-23T09:29:12.156Z,9.93
2018-09-23T09:31:41.217Z,13.45
2018-09-23T09:34:10.020Z,8.60
2018-09-23T09:36:39.144Z,9.53
2018-09-23T09:39:09.336Z,7.85
2018-09-23T09:41:38.759Z,8.53
2018-09-23T09:44:07.834Z,8.03
2018-09-23T09:46:36.883Z,7.55
2018-09-23T09:49:05.807Z,6.53
2018-09-23T09:51:34.627Z,9.88
2018-09-23T09:54:03.484Z,8.98
2018-09-23T09:56:32.287Z,9.58
2018-09-23T09:59:01.187Z,10.30
2018-09-23T10:01:30.059Z,6.33
2018-09-23T10:03:59.119Z,6.87
2018-09-23T10:06:28.823Z,10.03
2018-09-23T10:08:59.671Z,10.63
2018-09-23T10:11:29.409Z,8.98
2018-09-23T10:13:58.151Z,12.23
2018-09-23T10:16:26.942Z,7.47
2018-09-23T10:18:57.226Z,8.20
2018-09-23T10:21:26.063Z,6.40
2018-09-23T10:23:54.934Z,7.25
2018-09-23T10:26:24.212Z,6.62
2018-09-23T10:28:53.043Z,6.62
2018-09-23T10:31:21.905Z,6.80
2018-09-23T10:33:50.615Z,8.23
2018-09-23T10:36:19.512Z,4.15
2018-09-23T10:38:48.442Z,8.55
2018-09-23T10:41:17.268Z,7.75
2018-09-23T10:43:45.962Z,8.70
2018-09-23T10:46:14.782Z,9.30
2018-09-23T10:48:43.577Z,13.25
2018-09-23T10:51:13.071Z,9.58
2018-09-23T10:53:42.478Z,7.07
2018-09-23T10:56:11.298Z,4.47
2018-09-23T10:58:40.287Z,4.00
2018-09-23T11:01:09.030Z,4.92
2018-09-23T11:03:37.857Z,5.25
2018-09-23T11:06:06.634Z,12.28
2018-09-23T11:08:35.388Z,4.17
2018-09-23T11:11:04.259Z,6.47
2018-09-23T11:13:33.108Z,7.90
2018-09-23T11:16:01.959Z,7.42
2018-09-23T11:18:30.767Z,7.53
2018-09-23T11:20:59.626Z,6.15
2018-09-23T11:23:28.434Z,7.05
2018-09-23T11:25:57.217Z,9.05
2018-09-23T11:28:26.018Z,5.97
2018-09-23T11:30:54.867Z,6.53
2018-09-23T11:33:23.664Z,4.35
2018-09-23T11:35:52.518Z,2.52
2018-09-23T11:38:21.291Z,5.17
2018-09-23T11:40:50.056Z,7.75
2018-09-23T11:43:18.871Z,2.95
2018-09-23T11:45:47.667Z,3.03
2018-09-23T11:48:16.461Z,5.13
2018-09-23T11:50:45.245Z,4.47
2018-09-23T11:53:14.004Z,2.80
2018-09-23T11:55:42.849Z,3.30
2018-09-23T11:58:11.630Z,3.62
2018-09-23T12:00:40.484Z,4.55
2018-09-23T12:03:09.246Z,3.12
2018-09-23T12:05:38.058Z,6.80
2018-09-23T12:08:07.184Z,3.45
2018-09-23T12:10:36.028Z,3.58
2018-09-23T12:13:04.839Z,6.97
2018-09-23T12:15:33.736Z,4.03
2018-09-23T12:18:02.471Z,1.98
2018-09-23T12:20:32.330Z,3.37
2018-09-23T12:23:01.147Z,2.12
2018-09-23T12:25:30.001Z,4.62
2018-09-23T12:27:58.723Z,5.67
2018-09-23T12:30:27.515Z,5.93
2018-09-23T12:32:56.310Z,8.50
2018-09-23T12:35:25.187Z,4.60
2018-09-23T12:37:53.991Z,7.58
2018-09-23T12:40:22.786Z,3.02
2018-09-23T12:42:51.551Z,9.23
2018-09-23T12:45:20.327Z,8.03
2018-09-23T12:47:49.130Z,5.33
2018-09-23T12:50:20.040Z,2.87
2018-09-23T12:52:48.784Z,4.45
2018-09-23T12:55:17.655Z,3.37
2018-09-23T12:57:47.510Z,3.20
2018-09-23T13:00:16.316Z,2.40
2018-09-23T13:02:45.128Z,2.20
2018-09-23T13:05:13.953Z,3.83
2018-09-23T13:07:42.707Z,2.30
2018-09-23T13:10:11.531Z,4.33
2018-09-23T13:12:40.307Z,4.62
2018-09-23T13:15:09.303Z,4.60
2018-09-23T13:17:38.308Z,1.87
2018-09-23T13:20:07.323Z,1.32
2018-09-23T13:22:36.501Z,5.87
2018-09-23T13:25:05.296Z,2.50
2018-09-23T13:27:34.162Z,4.35
2018-09-23T13:30:02.983Z,5.97
2018-09-23T13:32:31.743Z,3.47
2018-09-23T13:35:00.503Z,4.90
2018-09-23T13:37:29.251Z,3.52
2018-09-23T13:39:58.008Z,4.53
2018-09-23T13:42:26.786Z,4.28
2018-09-23T13:44:55.568Z,2.55
2018-09-23T13:47:24.419Z,3.90
2018-09-23T13:49:53.212Z,3.00
2018-09-23T13:52:22.025Z,1.87
2018-09-23T13:54:50.839Z,1.45
2018-09-23T13:57:19.675Z,1.20
2018-09-23T13:59:48.502Z,1.50
2018-09-23T14:02:17.315Z,1.70
2018-09-23T14:04:46.171Z,2.63
2018-09-23T14:07:14.994Z,2.30
2018-09-23T14:09:43.767Z,4.20
2018-09-23T14:12:12.589Z,1.80
2018-09-23T14:14:41.363Z,2.33
2018-09-23T14:17:10.171Z,2.62
2018-09-23T14:19:39.126Z,1.67
2018-09-23T14:22:07.898Z,3.77
2018-09-23T14:24:36.723Z,1.95
2018-09-23T14:27:05.599Z,4.53
2018-09-23T14:29:34.367Z,3.63
2018-09-23T14:32:03.143Z,3.90
2018-09-23T14:34:31.919Z,3.70
2018-09-23T14:37:00.692Z,3.10
2018-09-23T14:39:29.485Z,3.52
2018-09-23T14:41:58.347Z,3.55
2018-09-23T14:44:27.131Z,4.03
2018-09-23T14:46:55.908Z,6.90
2018-09-23T14:49:24.666Z,5.75
2018-09-23T14:51:53.698Z,4.65
2018-09-23T14:54:22.584Z,3.30
2018-09-23T14:56:51.365Z,5.10
2018-09-23T14:59:20.225Z,4.87
2018-09-23T15:01:49.004Z,5.83
2018-09-23T15:04:18.626Z,3.05
2018-09-23T15:06:47.394Z,4.95
2018-09-23T15:09:16.291Z,4.00
2018-09-23T15:11:45.058Z,6.00
2018-09-23T15:14:13.938Z,4.53
2018-09-23T15:16:43.239Z,5.60
2018-09-23T15:19:12.709Z,8.68
2018-09-23T15:21:41.535Z,7.70
2018-09-23T15:24:10.361Z,7.22
2018-09-23T15:26:39.195Z,4.62
2018-09-23T15:29:08.260Z,6.78
2018-09-23T15:31:37.038Z,7.45
2018-09-23T15:34:05.848Z,7.92
2018-09-23T15:36:35.402Z,7.47
2018-09-23T15:39:05.692Z,6.05
2018-09-23T15:41:34.523Z,4.97
2018-09-23T15:44:03.335Z,2.70
2018-09-23T15:46:32.135Z,2.85
2018-09-23T15:49:00.911Z,5.20
2018-09-23T15:51:29.671Z,5.78
2018-09-23T15:53:58.443Z,4.03
2018-09-23T15:56:27.246Z,5.00
2018-09-23T15:58:56.093Z,2.30
2018-09-23T16:01:24.850Z,3.63
2018-09-23T16:03:53.642Z,4.08
2018-09-23T16:06:22.482Z,7.12
2018-09-23T16:08:51.263Z,4.97
2018-09-23T16:11:20.097Z,8.13
2018-09-23T16:13:48.928Z,7.67
2018-09-23T16:16:17.750Z,8.40
2018-09-23T16:18:46.674Z,11.57
2018-09-23T16:21:15.393Z,6.25
2018-09-23T16:23:44.214Z,3.75
2018-09-23T16:26:13.019Z,6.15
2018-09-23T16:28:41.838Z,5.30
2018-09-23T16:31:10.648Z,9.03
2018-09-23T16:33:39.431Z,8.93
2018-09-23T16:36:08.202Z,7.05
2018-09-23T16:38:36.986Z,5.33
2018-09-23T16:41:06.302Z,6.57
2018-09-23T16:43:35.120Z,5.67
2018-09-23T16:46:03.886Z,9.08
2018-09-23T16:48:32.723Z,4.65
2018-09-23T16:51:01.487Z,5.33
2018-09-23T16:53:30.274Z,5.35
2018-09-23T16:55:59.094Z,10.00
2018-09-23T16:58:27.939Z,10.35
2018-09-23T17:00:56.826Z,3.35
2018-09-23T17:03:25.527Z,4.87
2018-09-23T17:05:54.314Z,5.83
2018-09-23T17:08:23.155Z,7.22
2018-09-23T17:10:51.910Z,6.78
2018-09-23T17:13:20.679Z,4.80
2018-09-23T17:15:49.483Z,8.63
2018-09-23T17:18:18.287Z,7.17
2018-09-23T17:20:47.123Z,7.17
2018-09-23T17:23:15.915Z,7.97
2018-09-23T17:25:44.755Z,6.70
2018-09-23T17:28:13.614Z,7.03
2018-09-23T17:30:42.307Z,5.85
2018-09-23T17:33:11.388Z,11.18
2018-09-23T17:35:40.314Z,6.72
2018-09-23T17:38:09.159Z,7.87
2018-09-23T17:40:37.954Z,6.05
2018-09-23T17:43:06.770Z,4.85
2018-09-23T17:45:35.550Z,7.78
2018-09-23T17:48:04.563Z,7.33
2018-09-23T17:50:33.327Z,7.22
2018-09-23T17:53:02.173Z,9.33
2018-09-23T17:55:31.072Z,10.65
2018-09-23T17:57:59.891Z,9.60
2018-09-23T18:00:28.775Z,8.53
2018-09-23T18:02:57.683Z,8.55
2018-09-23T18:05:26.465Z,5.80
2018-09-23T18:07:55.583Z,8.60
2018-09-23T18:10:24.404Z,9.43
2018-09-23T18:12:53.219Z,6.62
2018-09-23T18:15:22.491Z,8.87
2018-09-23T18:17:51.290Z,7.42
2018-09-23T18:20:20.101Z,11.30
2018-09-23T18:22:48.874Z,7.42
2018-09-23T18:25:17.666Z,4.97
2018-09-23T18:27:47.103Z,10.80
2018-09-23T18:30:15.899Z,12.37
2018-09-23T18:32:44.682Z,10.53
2018-09-23T18:35:14.128Z,14.68
2018-09-23T18:37:43.242Z,13.75
2018-09-23T18:40:11.919Z,7.90
2018-09-23T18:42:40.762Z,9.78
2018-09-23T18:45:09.626Z,3.98
2018-09-23T18:47:39.087Z,8.43
2018-09-23T18:50:07.857Z,13.10
2018-09-23T18:52:36.667Z,14.70
2018-09-23T18:55:11.004Z,12.47
2018-09-23T18:57:39.868Z,15.88
2018-09-23T19:00:15.398Z,10.60
2018-09-23T19:02:44.388Z,16.07
2018-09-23T19:05:13.219Z,15.15
2018-09-23T19:07:41.990Z,10.15
2018-09-23T19:10:10.947Z,11.00
2018-09-23T19:12:39.751Z,17.00
2018-09-23T19:15:08.643Z,16.40
2018-09-23T19:17:37.491Z,11.35
2018-09-23T19:20:09.401Z,8.78
2018-09-23T19:22:43.576Z,10.93
2018-09-23T19:25:12.403Z,11.68
2018-09-23T19:27:41.199Z,14.87
2018-09-23T19:30:09.983Z,10.40
2018-09-23T19:32:38.854Z,11.70
2018-09-23T19:35:08.424Z,19.85
2018-09-23T19:37:37.219Z,17.05
2018-09-23T19:40:05.983Z,15.30
2018-09-23T19:42:34.895Z,10.03
2018-09-23T19:45:03.647Z,16.33
2018-09-23T19:47:32.485Z,13.83
2018-09-23T19:50:01.762Z,11.53
2018-09-23T19:52:30.598Z,8.45
2018-09-23T19:54:59.530Z,10.20
2018-09-23T19:57:28.323Z,11.97
2018-09-23T19:59:57.280Z,10.60
2018-09-23T20:02:26.094Z,9.60
2018-09-23T20:04:55.138Z,10.82
2018-09-23T20:07:24.506Z,10.90
2018-09-23T20:09:53.299Z,11.40
2018-09-23T20:12:22.155Z,9.35
2018-09-23T20:14:50.939Z,9.95
2018-09-23T20:17:19.727Z,11.08
2018-09-23T20:33:32.921Z,9.68
2018-09-23T20:36:01.882Z,8.80
2018-09-23T20:38:30.699Z,18.85
2018-09-23T20:40:59.423Z,9.78
2018-09-23T20:43:28.214Z,10.95
2018-09-23T20:45:58.029Z,9.25
2018-09-23T20:48:26.750Z,10.07
2018-09-23T20:50:55.562Z,6.53
2018-09-23T20:53:24.306Z,9.43
2018-09-23T20:55:53.462Z,11.35
2018-09-23T20:58:22.238Z,13.38
2018-09-23T21:00:51.012Z,9.63
2018-09-23T21:03:19.746Z,8.60
2018-09-23T21:05:48.505Z,14.07
2018-09-23T21:08:17.266Z,15.08
2018-09-23T21:10:46.106Z,11.48
2018-09-23T21:13:14.925Z,13.18
2018-09-23T21:15:43.678Z,11.68
2018-09-23T21:18:12.470Z,10.45
2018-09-23T21:20:41.258Z,10.72
2018-09-23T21:23:10.062Z,10.23
2018-09-23T21:25:38.923Z,9.23
2018-09-23T21:28:07.762Z,12.85
2018-09-23T21:30:36.507Z,6.25
2018-09-23T21:33:05.323Z,12.98
2018-09-23T21:35:34.122Z,12.40
2018-09-23T21:38:03.472Z,8.85
2018-09-23T21:40:32.256Z,6.92
2018-09-23T21:43:01.110Z,5.17
2018-09-23T21:45:29.887Z,7.28
2018-09-23T21:47:59.671Z,5.97
2018-09-23T21:50:28.465Z,10.25
2018-09-23T21:52:57.246Z,11.75
2018-09-23T21:55:26.015Z,11.30
2018-09-23T21:57:54.864Z,10.25
2018-09-23T22:00:27.936Z,14.95
2018-09-23T22:02:56.664Z,7.55
2018-09-23T22:05:25.422Z,9.15
2018-09-23T22:07:54.198Z,9.85
2018-09-23T22:10:22.943Z,11.85
2018-09-23T22:12:51.678Z,11.38
2018-09-23T22:15:23.922Z,7.45
2018-09-23T22:17:52.982Z,7.28
2018-09-23T22:23:04.914Z,11.60
2018-09-23T22:25:33.654Z,10.13
2018-09-23T22:28:02.442Z,11.33
2018-09-23T22:30:31.247Z,12.07
2018-09-23T22:33:00.039Z,8.63
2018-09-23T22:35:28.794Z,15.28
2018-09-23T22:37:57.578Z,9.55
2018-09-23T22:40:26.458Z,8.35
2018-09-23T22:42:55.254Z,10.43
2018-09-23T22:45:24.587Z,9.93
2018-09-23T22:47:53.390Z,9.30
2018-09-23T22:50:22.214Z,8.20
2018-09-23T22:52:50.981Z,5.78
2018-09-23T22:55:19.823Z,7.72
2018-09-23T22:57:48.583Z,6.45
2018-09-23T23:00:17.398Z,10.97
2018-09-23T23:02:46.171Z,6.97
2018-09-23T23:05:14.972Z,11.63
2018-09-23T23:07:43.728Z,12.28
2018-09-23T23:10:12.510Z,3.80
2018-09-23T23:12:41.271Z,13.68
2018-09-23T23:15:10.036Z,10.98
2018-09-23T23:17:38.830Z,11.43
2018-09-23T23:20:07.763Z,9.00
2018-09-23T23:22:36.531Z,13.38
2018-09-23T23:25:05.451Z,6.95
2018-09-23T23:27:34.233Z,5.80
2018-09-23T23:30:03.038Z,9.15
2018-09-23T23:32:31.917Z,9.20
2018-09-23T23:35:00.690Z,8.25
2018-09-23T23:37:29.554Z,9.35
2018-09-23T23:39:58.474Z,12.55
2018-09-23T23:42:27.235Z,9.38
2018-09-23T23:44:56.015Z,6.28
2018-09-23T23:47:24.846Z,13.08
2018-09-23T23:49:53.582Z,9.15
2018-09-23T23:52:22.342Z,8.25
2018-09-23T23:54:51.132Z,8.90
2018-09-23T23:57:19.907Z,9.25
2018-09-23T23:59:48.703Z,6.40
